createdAt,value
2019-01-21T00:00:56.633Z,34.30
2019-01-21T00:03:29.540Z,33.37
2019-01-21T00:05:59.460Z,36.23
2019-01-21T00:08:30.373Z,33.43
2019-01-21T00:11:00.682Z,34.73
2019-01-21T00:13:32.360Z,34.07
2019-01-21T00:16:09.410Z,33.70
2019-01-21T00:18:39.485Z,34.27
2019-01-21T00:21:09.989Z,34.93
2019-01-21T00:23:49.886Z,33.50
2019-01-21T00:26:20.366Z,33.47
2019-01-21T00:28:54.618Z,36.40
2019-01-21T00:31:25.678Z,33.97
2019-01-21T00:33:56.301Z,31.33
2019-01-21T00:36:26.468Z,32.70
2019-01-21T00:38:56.813Z,32.40
2019-01-21T00:41:27.015Z,33.87
2019-01-21T00:44:00.539Z,34.83
2019-01-21T00:46:31.582Z,34.80
2019-01-21T00:49:03.406Z,32.77
2019-01-21T00:51:33.147Z,33.60
2019-01-21T00:54:04.560Z,33.83
2019-01-21T00:56:35.140Z,32.50
2019-01-21T00:59:05.510Z,34.10
2019-01-21T01:01:35.370Z,32.33
2019-01-21T01:04:05.516Z,35.50
2019-01-21T01:06:35.410Z,35.33
2019-01-21T01:09:08.008Z,32.40
2019-01-21T01:11:38.010Z,33.83
2019-01-21T01:14:07.810Z,34.33
2019-01-21T01:16:40.812Z,33.40
2019-01-21T01:19:11.149Z,32.63
2019-01-21T01:21:42.015Z,34.83
2019-01-21T01:24:11.587Z,33.27
2019-01-21T01:26:41.746Z,33.23
2019-01-21T01:29:11.725Z,35.10
2019-01-21T01:31:41.791Z,35.67
2019-01-21T01:34:12.285Z,33.13
2019-01-21T01:36:44.620Z,36.07
2019-01-21T01:39:14.695Z,33.07
2019-01-21T01:41:44.439Z,31.57
2019-01-21T01:44:17.861Z,31.30
2019-01-21T01:46:48.301Z,35.63
2019-01-21T01:49:18.166Z,35.63
2019-01-21T01:51:48.421Z,34.97
2019-01-21T01:54:18.404Z,35.10
2019-01-21T01:56:48.724Z,34.30
2019-01-21T01:59:18.417Z,35.40
2019-01-21T02:01:51.513Z,33.60
2019-01-21T02:04:21.587Z,34.63
2019-01-21T02:06:51.454Z,32.80
2019-01-21T02:09:22.133Z,34.53
2019-01-21T02:11:55.595Z,35.07
2019-01-21T02:14:30.291Z,34.60
2019-01-21T02:17:00.048Z,36.43
2019-01-21T02:19:35.576Z,33.10
2019-01-21T02:22:05.866Z,33.30
2019-01-21T02:24:40.663Z,35.87
2019-01-21T02:28:12.385Z,36.43
2019-01-21T02:31:28.944Z,35.30
2019-01-21T02:34:23.988Z,34.57
2019-01-21T02:37:30.664Z,37.03
2019-01-21T02:40:23.978Z,33.63
2019-01-21T02:43:34.721Z,34.90
2019-01-21T02:46:51.098Z,35.47
2019-01-21T02:49:50.778Z,33.80
2019-01-21T02:53:04.587Z,36.37
2019-01-21T02:56:17.072Z,34.53
2019-01-21T02:59:16.044Z,34.90
2019-01-21T03:02:12.792Z,36.10
2019-01-21T03:05:22.942Z,35.10
2019-01-21T03:08:44.791Z,36.23
2019-01-21T03:11:44.853Z,34.73
2019-01-21T03:14:49.823Z,35.27
2019-01-21T03:17:56.200Z,35.57
2019-01-21T03:20:55.953Z,34.53
2019-01-21T03:24:05.450Z,35.23
2019-01-21T03:27:31.348Z,32.70
2019-01-21T03:30:44.279Z,34.47
2019-01-21T03:33:55.113Z,34.30
2019-01-21T03:37:14.310Z,34.53
2019-01-21T03:40:45.900Z,34.77
2019-01-21T03:43:46.333Z,31.90
2019-01-21T03:47:00.032Z,34.00
2019-01-21T03:49:42.168Z,32.60
2019-01-21T03:52:47.378Z,33.77
2019-01-21T03:55:18.083Z,33.13
2019-01-21T03:58:45.692Z,33.50
2019-01-21T04:01:48.012Z,34.00
2019-01-21T04:05:06.824Z,31.77
2019-01-21T04:08:17.686Z,32.93
2019-01-21T04:11:35.548Z,32.40
2019-01-21T04:14:54.169Z,33.60
2019-01-21T04:21:14.292Z,32.07
2019-01-21T04:24:30.980Z,35.40
2019-01-21T04:27:33.821Z,29.93
2019-01-21T04:30:35.665Z,32.00
2019-01-21T04:34:07.779Z,32.73
2019-01-21T04:37:03.405Z,32.80
2019-01-21T04:40:23.632Z,33.23
2019-01-21T04:43:11.893Z,30.33
2019-01-21T04:46:24.568Z,32.10
2019-01-21T04:49:13.266Z,29.67
2019-01-21T04:52:07.711Z,31.67
2019-01-21T04:55:09.458Z,30.43
2019-01-21T04:58:07.974Z,31.70
2019-01-21T05:00:54.434Z,30.93
2019-01-21T05:03:41.495Z,30.63
2019-01-21T05:06:43.825Z,31.07
2019-01-21T05:10:16.151Z,30.50
2019-01-21T05:13:49.655Z,29.70
2019-01-21T05:17:04.984Z,32.00
2019-01-21T05:20:15.424Z,28.70
2019-01-21T05:23:07.180Z,29.80
2019-01-21T05:26:22.900Z,30.27
2019-01-21T05:29:35.683Z,31.70
2019-01-21T05:32:29.159Z,30.80
2019-01-21T05:35:29.612Z,32.10
2019-01-21T05:38:49.810Z,32.00
2019-01-21T05:41:58.069Z,31.73
2019-01-21T05:44:51.808Z,32.77
2019-01-21T05:48:05.391Z,30.77
2019-01-21T05:51:24.459Z,30.73
2019-01-21T05:54:51.545Z,32.10
2019-01-21T05:58:09.214Z,31.43
2019-01-21T06:01:06.962Z,30.00
2019-01-21T06:08:09.679Z,31.10
2019-01-21T06:11:42.061Z,30.20
2019-01-21T06:14:53.881Z,32.07
2019-01-21T06:18:10.852Z,29.93
2019-01-21T06:21:22.088Z,30.07
2019-01-21T06:24:06.108Z,29.77
2019-01-21T06:27:10.189Z,27.50
2019-01-21T06:30:05.523Z,28.23
2019-01-21T06:32:49.992Z,30.20
2019-01-21T06:35:47.622Z,30.77
2019-01-21T06:39:05.435Z,30.63
2019-01-21T06:42:27.634Z,31.83
2019-01-21T06:45:48.492Z,31.80
2019-01-21T06:49:04.603Z,30.30
2019-01-21T06:52:04.814Z,28.47
2019-01-21T06:55:11.543Z,29.40
2019-01-21T06:58:11.743Z,30.53
2019-01-21T07:01:38.001Z,28.90
2019-01-21T07:05:26.731Z,30.60
2019-01-21T07:08:57.957Z,29.30
2019-01-21T07:12:29.335Z,28.90
2019-01-21T07:19:46.362Z,30.57
2019-01-21T07:27:39.303Z,29.87
2019-01-21T07:30:43.860Z,28.67
2019-01-21T07:38:36.506Z,30.87
2019-01-21T07:45:16.470Z,34.00
2019-01-21T07:48:44.131Z,37.30
2019-01-21T07:52:10.250Z,36.20
2019-01-21T07:55:37.578Z,36.73
2019-01-21T07:58:49.803Z,35.40
2019-01-21T08:05:52.542Z,35.93
2019-01-21T08:08:53.064Z,37.40
2019-01-21T08:12:27.373Z,33.90
2019-01-21T08:15:33.319Z,49.80
2019-01-21T08:22:45.361Z,30.37
2019-01-21T08:25:51.092Z,28.37
2019-01-21T08:29:09.441Z,30.20
2019-01-21T08:32:26.632Z,27.87
2019-01-21T08:35:28.299Z,28.33
2019-01-21T08:38:53.739Z,29.13
2019-01-21T08:42:09.594Z,30.77
2019-01-21T08:45:24.885Z,28.07
2019-01-21T08:48:49.332Z,32.83
2019-01-21T08:52:27.876Z,28.50
2019-01-21T08:55:36.641Z,29.70
2019-01-21T08:58:42.210Z,30.53
2019-01-21T09:01:45.495Z,31.30
2019-01-21T09:04:53.577Z,33.03
2019-01-21T09:08:24.798Z,30.27
2019-01-21T09:11:17.033Z,29.70
2019-01-21T09:14:14.582Z,29.03
2019-01-21T09:17:15.101Z,27.63
2019-01-21T09:20:17.041Z,29.43
2019-01-21T09:23:02.321Z,30.13
2019-01-21T09:26:02.282Z,29.73
2019-01-21T09:29:14.631Z,28.17
2019-01-21T09:32:26.663Z,31.27
2019-01-21T09:35:23.314Z,33.00
2019-01-21T09:38:38.115Z,29.80
2019-01-21T09:42:02.909Z,28.40
2019-01-21T09:45:09.894Z,25.97
2019-01-21T09:47:41.669Z,27.20
2019-01-21T09:50:32.398Z,28.60
2019-01-21T09:53:14.354Z,29.50
2019-01-21T09:56:06.662Z,31.53
2019-01-21T09:58:51.317Z,30.07
2019-01-21T10:01:18.405Z,31.40
2019-01-21T10:03:55.505Z,31.37
2019-01-21T10:06:55.959Z,29.73
2019-01-21T10:10:08.819Z,31.70
2019-01-21T10:34:15.264Z,29.13
2019-01-21T10:37:21.793Z,28.97
2019-01-21T10:40:40.930Z,28.67
2019-01-21T10:43:54.788Z,29.40
2019-01-21T10:46:48.107Z,30.00
2019-01-21T10:50:05.443Z,30.63
2019-01-21T10:53:25.159Z,28.50
2019-01-21T10:56:21.771Z,31.47
2019-01-21T10:59:46.289Z,31.60
2019-01-21T11:03:18.362Z,30.20
2019-01-21T11:06:43.957Z,29.77
2019-01-21T11:09:52.843Z,37.37
2019-01-21T11:13:25.970Z,33.10
2019-01-21T11:16:25.015Z,31.57
2019-01-21T11:19:56.856Z,31.90
2019-01-21T11:22:32.403Z,27.53
2019-01-21T11:25:38.613Z,32.80
2019-01-21T11:28:34.924Z,32.17
2019-01-21T11:31:36.456Z,30.77
2019-01-21T11:34:42.726Z,29.97
2019-01-21T11:37:44.840Z,30.73
2019-01-21T11:41:05.303Z,31.03
2019-01-21T11:44:15.515Z,30.90
2019-01-21T11:47:01.209Z,30.67
2019-01-21T11:49:53.035Z,32.67
2019-01-21T11:53:12.043Z,30.87
2019-01-21T11:56:10.266Z,31.20
2019-01-21T11:59:13.067Z,31.07
2019-01-21T12:01:59.692Z,32.60
2019-01-21T12:05:00.403Z,32.50
2019-01-21T12:08:10.081Z,33.03
2019-01-21T12:11:10.217Z,32.27
2019-01-21T12:14:20.100Z,34.17
2019-01-21T12:17:26.810Z,32.83
2019-01-21T12:20:21.444Z,36.30
2019-01-21T12:23:32.705Z,34.37
2019-01-21T12:26:28.648Z,32.80
2019-01-21T12:29:11.509Z,36.37
2019-01-21T12:32:02.482Z,32.20
2019-01-21T12:35:12.751Z,34.57
2019-01-21T12:38:11.512Z,35.33
2019-01-21T12:40:54.682Z,34.27
2019-01-21T12:43:46.115Z,32.97
2019-01-21T12:46:46.160Z,33.77
2019-01-21T12:49:40.653Z,32.83
2019-01-21T12:52:49.330Z,33.57
2019-01-21T12:55:59.015Z,34.97
2019-01-21T12:58:57.876Z,34.73
2019-01-21T13:02:14.442Z,35.17
2019-01-21T13:05:11.145Z,36.30
2019-01-21T13:08:10.066Z,36.03
2019-01-21T13:11:17.630Z,34.57
2019-01-21T13:14:43.745Z,35.00
2019-01-21T13:17:48.273Z,35.20
2019-01-21T13:20:56.928Z,34.60
2019-01-21T13:23:57.454Z,34.30
2019-01-21T13:26:51.043Z,32.40
2019-01-21T13:29:52.440Z,32.90
2019-01-21T13:33:04.427Z,28.80
2019-01-21T13:36:02.353Z,29.17
2019-01-21T13:39:11.967Z,29.87
2019-01-21T13:41:55.653Z,32.10
2019-01-21T13:45:04.014Z,32.10
2019-01-21T13:48:07.644Z,30.70
2019-01-21T13:51:05.857Z,28.40
2019-01-21T13:54:06.877Z,30.63
2019-01-21T13:57:05.288Z,29.20
2019-01-21T14:00:08.129Z,31.68
2019-01-21T14:03:45.808Z,29.27
2019-01-21T14:07:05.259Z,36.17
2019-01-21T14:10:44.051Z,30.43
2019-01-21T14:13:26.803Z,28.77
2019-01-21T14:16:15.552Z,28.80
2019-01-21T14:18:59.643Z,27.63
2019-01-21T14:21:56.435Z,29.10
2019-01-21T14:25:37.731Z,28.30
2019-01-21T14:28:49.873Z,29.80
2019-01-21T14:32:18.905Z,28.83
2019-01-21T14:35:19.189Z,29.67
2019-01-21T14:38:20.530Z,28.37
2019-01-21T14:41:48.804Z,27.20
2019-01-21T14:45:10.772Z,27.10
2019-01-21T14:48:24.792Z,29.30
2019-01-21T14:51:35.992Z,28.63
2019-01-21T14:54:45.734Z,27.30
2019-01-21T14:57:49.786Z,27.73
2019-01-21T15:00:59.149Z,28.27
2019-01-21T15:04:37.237Z,30.33
2019-01-21T15:07:21.795Z,27.10
2019-01-21T15:10:16.404Z,27.40
2019-01-21T15:13:10.915Z,29.53
2019-01-21T15:16:43.272Z,29.60
2019-01-21T15:19:27.954Z,28.30
2019-01-21T15:26:42.423Z,36.10
2019-01-21T15:30:24.290Z,36.33
2019-01-21T16:01:18.887Z,39.90
2019-01-21T16:04:10.655Z,38.50
2019-01-21T16:07:32.989Z,39.33
2019-01-21T16:10:29.326Z,36.07
2019-01-21T16:13:21.209Z,33.77
2019-01-21T16:16:02.437Z,35.87
2019-01-21T16:18:37.012Z,33.83
2019-01-21T16:21:37.212Z,34.40
2019-01-21T16:24:52.144Z,35.33
2019-01-21T16:28:20.962Z,34.30
2019-01-21T16:35:29.664Z,32.90
2019-01-21T16:42:22.139Z,34.50
2019-01-21T16:45:02.717Z,35.07
2019-01-21T16:47:32.241Z,37.83
2019-01-21T16:50:02.804Z,37.93
2019-01-21T16:52:32.450Z,38.90
2019-01-21T16:55:02.845Z,35.57
2019-01-21T16:57:32.843Z,37.37
2019-01-21T17:00:03.461Z,44.53
2019-01-21T17:02:35.778Z,35.63
2019-01-21T17:05:07.368Z,37.47
2019-01-21T17:07:37.374Z,37.37
2019-01-21T17:10:09.423Z,36.30
2019-01-21T17:12:39.938Z,34.63
2019-01-21T17:15:10.994Z,34.80
2019-01-21T17:17:40.712Z,34.97
2019-01-21T17:20:15.651Z,38.57
2019-01-21T17:23:02.885Z,36.30
2019-01-21T17:25:32.576Z,37.40
2019-01-21T17:28:02.098Z,35.83
2019-01-21T17:30:32.062Z,38.37
2019-01-21T17:33:02.460Z,38.20
2019-01-21T17:35:34.815Z,40.13
2019-01-21T17:38:04.992Z,38.20
2019-01-21T17:40:34.561Z,38.00
2019-01-21T17:43:04.278Z,40.50
2019-01-21T17:45:34.522Z,51.00
2019-01-21T17:59:15.623Z,42.10
2019-01-21T18:01:46.137Z,39.10
2019-01-21T18:04:21.420Z,37.60
2019-01-21T18:07:00.025Z,42.10
2019-01-21T18:09:35.450Z,36.77
2019-01-21T18:12:10.653Z,38.60
2019-01-21T18:14:41.395Z,37.50
2019-01-21T18:17:15.537Z,37.60
2019-01-21T18:19:48.451Z,38.57
2019-01-21T18:22:18.487Z,38.90
2019-01-21T18:24:52.858Z,38.07
2019-01-21T18:27:23.095Z,43.27
2019-01-21T18:29:58.327Z,42.20
2019-01-21T18:36:11.786Z,40.67
2019-01-21T18:38:45.828Z,48.27
2019-01-21T18:41:31.167Z,39.83
2019-01-21T18:44:14.211Z,42.37
2019-01-21T18:46:55.233Z,46.80
2019-01-21T18:53:39.245Z,35.43
2019-01-21T18:56:10.234Z,36.00
2019-01-21T18:59:10.396Z,36.03
2019-01-21T19:01:54.216Z,36.27
2019-01-21T19:04:32.513Z,37.20
2019-01-21T19:10:48.685Z,35.53
2019-01-21T19:13:06.111Z,31.27
2019-01-21T19:15:45.940Z,31.07
2019-01-21T19:18:23.644Z,30.47
2019-01-21T19:21:02.167Z,31.60
2019-01-21T19:23:35.408Z,31.90
2019-01-21T19:26:08.691Z,31.83
2019-01-21T19:28:40.187Z,33.10
2019-01-21T19:31:19.969Z,31.60
2019-01-21T19:33:54.470Z,31.53
2019-01-21T19:36:24.839Z,32.67
2019-01-21T19:39:02.251Z,30.80
2019-01-21T19:41:37.986Z,31.97
2019-01-21T19:44:08.866Z,32.37
2019-01-21T19:46:45.292Z,35.83
2019-01-21T19:49:22.696Z,32.60
2019-01-21T19:52:02.697Z,31.40
2019-01-21T19:54:35.903Z,34.10
2019-01-21T19:57:09.599Z,30.20
2019-01-21T19:59:49.274Z,32.77
2019-01-21T20:02:25.576Z,30.83
2019-01-21T20:04:57.728Z,31.20
2019-01-21T20:07:43.201Z,29.53
2019-01-21T20:10:19.888Z,30.60
2019-01-21T20:12:56.636Z,29.23
2019-01-21T20:15:27.424Z,29.97
2019-01-21T20:18:04.757Z,31.07
2019-01-21T20:20:40.596Z,28.73
2019-01-21T20:23:18.859Z,29.20
2019-01-21T20:25:50.096Z,30.30
2019-01-21T20:28:20.346Z,29.90
2019-01-21T20:30:53.813Z,28.70
2019-01-21T20:33:24.075Z,30.40
2019-01-21T20:35:57.124Z,30.70
2019-01-21T20:38:42.470Z,28.93
2019-01-21T20:41:17.630Z,30.50
2019-01-21T20:43:53.012Z,29.17
2019-01-21T20:46:25.276Z,29.43
2019-01-21T20:48:56.604Z,34.37
2019-01-21T20:51:27.334Z,32.77
2019-01-21T20:53:57.571Z,31.47
2019-01-21T20:56:27.870Z,29.00
2019-01-21T20:59:02.721Z,32.83
2019-01-21T21:01:33.542Z,39.17
2019-01-21T21:04:03.709Z,32.43
2019-01-21T21:06:34.839Z,30.00
2019-01-21T21:09:06.821Z,29.67
2019-01-21T21:11:40.262Z,27.37
2019-01-21T21:14:13.742Z,31.90
2019-01-21T21:16:43.531Z,30.30
2019-01-21T21:19:14.093Z,32.50
2019-01-21T21:21:44.917Z,29.47
2019-01-21T21:24:21.220Z,31.23
2019-01-21T21:26:51.767Z,32.27
2019-01-21T21:29:30.174Z,32.20
2019-01-21T21:32:01.362Z,30.80
2019-01-21T21:34:35.530Z,34.20
2019-01-21T21:37:11.313Z,31.10
2019-01-21T21:39:54.406Z,31.20
2019-01-21T21:42:30.817Z,30.90
2019-01-21T21:45:15.171Z,29.47
2019-01-21T21:48:03.582Z,30.00
2019-01-21T21:50:40.173Z,29.97
2019-01-21T21:53:17.284Z,31.77
2019-01-21T21:55:48.336Z,33.10
2019-01-21T21:58:18.774Z,31.00
2019-01-21T22:00:48.669Z,32.83
2019-01-21T22:03:26.512Z,31.13
2019-01-21T22:06:09.151Z,31.57
2019-01-21T22:08:41.583Z,32.00
2019-01-21T22:11:12.801Z,33.67
2019-01-21T22:13:44.305Z,33.27
2019-01-21T22:16:17.115Z,31.10
2019-01-21T22:19:04.859Z,30.67
2019-01-21T22:21:35.741Z,31.53
2019-01-21T22:24:07.655Z,31.60
2019-01-21T22:26:42.075Z,31.93
2019-01-21T22:29:20.849Z,28.93
2019-01-21T22:31:55.791Z,32.60
2019-01-21T22:34:44.550Z,29.87
2019-01-21T22:37:15.607Z,31.50
2019-01-21T22:39:46.384Z,30.30
2019-01-21T22:42:23.147Z,29.80
2019-01-21T22:44:57.067Z,29.40
2019-01-21T22:47:34.956Z,30.47
2019-01-21T22:50:09.529Z,32.10
2019-01-21T22:52:42.037Z,29.43
2019-01-21T22:55:15.898Z,29.70
2019-01-21T22:57:55.967Z,28.80
2019-01-21T23:00:45.255Z,27.17
2019-01-21T23:03:18.845Z,28.07
2019-01-21T23:06:03.475Z,27.40
2019-01-21T23:08:44.260Z,27.63
2019-01-21T23:11:15.249Z,26.30
2019-01-21T23:13:46.966Z,27.50
2019-01-21T23:16:22.311Z,27.33
2019-01-21T23:18:53.003Z,29.87
2019-01-21T23:21:23.364Z,29.20
2019-01-21T23:23:57.279Z,28.40
2019-01-21T23:26:27.377Z,28.60
2019-01-21T23:28:57.887Z,30.13
2019-01-21T23:31:27.840Z,29.20
2019-01-21T23:34:03.358Z,30.50
2019-01-21T23:36:41.850Z,27.83
2019-01-21T23:39:16.897Z,29.40
2019-01-21T23:41:51.681Z,29.83
2019-01-21T23:44:26.832Z,29.30
2019-01-21T23:47:32.090Z,29.03
2019-01-21T23:50:05.751Z,28.37
2019-01-21T23:52:42.197Z,30.60
2019-01-21T23:55:16.399Z,31.10
2019-01-21T23:57:50.296Z,33.80
